Terminal Aerodrome Forecast
Issued by NWS

Home | Current Version | Previous Version | Text Only | Print | Product List | Glossary On
Versions: 1 2 3 4 5 6 7 8 9 10 11 12 13
000
FTUS42 TJSJ 171700
TAFJMZ
TAF
TJMZ 171733Z 1718/1818 27010KT P6SM VCSH SCT040
     FM172300 08005KT P6SM FEW040
     FM181530 27010KT P6SM SCT025 BKN040
      AMD NOT SKED 1723/1811=

USA.gov is the U.S. government's official web portal to all federal, state and local government web resources and services.